createdAt,value
2023-03-29T11:59:55.807Z,0.80
2023-03-29T12:02:28.991Z,0.80
2023-03-29T12:05:00.383Z,0.80
2023-03-29T12:07:33.569Z,0.50
2023-03-29T12:10:06.912Z,0.82
2023-03-29T12:12:43.648Z,1.38
2023-03-29T12:15:20.141Z,1.60
2023-03-29T12:17:52.751Z,3.92
2023-03-29T12:20:26.900Z,3.00
2023-03-29T12:22:55.647Z,4.30
2023-03-29T12:25:29.909Z,4.95
2023-03-29T12:28:17.183Z,6.05
2023-03-29T12:31:01.986Z,5.13
2023-03-29T12:34:04.791Z,5.55
2023-03-29T12:36:55.555Z,4.22
2023-03-29T12:39:25.572Z,4.13
2023-03-29T12:41:53.508Z,4.22
2023-03-29T12:44:24.423Z,3.78
2023-03-29T12:46:59.854Z,2.92
2023-03-29T12:49:32.158Z,2.80
2023-03-29T12:52:01.686Z,2.42
2023-03-29T12:54:32.957Z,2.50
2023-03-29T12:57:02.641Z,2.42
2023-03-29T12:59:39.005Z,2.25
2023-03-29T13:05:01.451Z,2.45
2023-03-29T13:07:32.341Z,3.33
2023-03-29T13:10:01.481Z,2.88
2023-03-29T13:12:33.557Z,2.83
2023-03-29T13:15:03.241Z,2.83
2023-03-29T13:17:39.894Z,3.20
2023-03-29T13:20:32.242Z,2.60
2023-03-29T13:23:17.377Z,2.58
2023-03-29T13:26:13.013Z,2.08
2023-03-29T13:28:58.344Z,2.30
2023-03-29T13:31:36.937Z,2.33
2023-03-29T13:34:14.250Z,2.28
2023-03-29T13:36:54.734Z,2.88
2023-03-29T13:39:26.279Z,2.10
2023-03-29T13:41:55.476Z,2.38
2023-03-29T13:44:36.056Z,2.58
2023-03-29T13:47:29.178Z,2.30
2023-03-29T13:50:01.481Z,2.72
2023-03-29T13:52:34.910Z,2.75
2023-03-29T13:55:06.474Z,2.45
2023-03-29T13:57:38.309Z,3.20
2023-03-29T14:00:17.738Z,2.63
2023-03-29T14:02:49.733Z,3.35
2023-03-29T14:05:22.119Z,3.47
2023-03-29T14:07:54.281Z,3.85
2023-03-29T14:10:27.065Z,4.53
2023-03-29T14:12:56.659Z,3.60
2023-03-29T14:15:26.479Z,4.13
2023-03-29T14:17:58.977Z,4.38
2023-03-29T14:20:28.972Z,3.22
2023-03-29T14:22:58.153Z,3.92
2023-03-29T14:25:26.172Z,4.15
2023-03-29T14:27:54.090Z,4.25
2023-03-29T14:30:27.158Z,4.07
2023-03-29T14:32:56.610Z,4.32
2023-03-29T14:35:31.319Z,4.32
2023-03-29T14:38:01.554Z,4.97
2023-03-29T14:40:32.535Z,3.55
2023-03-29T14:43:05.295Z,3.83
2023-03-29T14:45:33.503Z,3.80
2023-03-29T14:48:01.782Z,3.67
2023-03-29T14:50:31.446Z,4.72
2023-03-29T14:53:02.376Z,3.70
2023-03-29T14:55:30.979Z,3.95
2023-03-29T14:58:00.110Z,4.68
2023-03-29T15:00:31.119Z,4.20
2023-03-29T15:03:01.059Z,3.78
2023-03-29T15:05:37.009Z,4.03
2023-03-29T15:08:08.786Z,4.13
2023-03-29T15:10:38.607Z,3.58
2023-03-29T15:13:08.418Z,3.70
2023-03-29T15:15:39.063Z,3.65
2023-03-29T15:18:08.992Z,3.47
2023-03-29T15:20:39.835Z,3.10
2023-03-29T15:23:22.542Z,3.65
2023-03-29T15:25:55.945Z,2.70
2023-03-29T15:28:28.340Z,3.03
2023-03-29T15:31:07.911Z,3.33
2023-03-29T15:33:38.348Z,3.30
2023-03-29T15:36:08.210Z,3.65
2023-03-29T15:38:44.047Z,4.00
2023-03-29T15:41:14.581Z,4.00
2023-03-29T15:43:43.336Z,3.40
2023-03-29T15:46:13.225Z,3.03
2023-03-29T15:48:41.677Z,2.88
2023-03-29T15:51:11.031Z,3.47
2023-03-29T15:53:40.838Z,2.75
2023-03-29T15:56:11.196Z,3.13
2023-03-29T15:58:39.273Z,2.97
2023-03-29T16:01:15.940Z,3.58
2023-03-29T16:03:46.261Z,3.70
2023-03-29T16:06:16.065Z,2.65
2023-03-29T16:08:45.946Z,2.55
2023-03-29T16:11:13.877Z,2.85
2023-03-29T16:13:41.817Z,2.88
2023-03-29T16:16:11.505Z,3.08
2023-03-29T16:18:39.525Z,3.00
2023-03-29T16:21:12.514Z,2.80
2023-03-29T16:23:40.595Z,2.90
2023-03-29T16:26:12.361Z,2.92
2023-03-29T16:28:41.009Z,2.83
2023-03-29T16:31:11.262Z,2.80
2023-03-29T16:33:39.170Z,2.88
2023-03-29T16:36:08.111Z,2.40
2023-03-29T16:38:36.029Z,2.75
2023-03-29T16:41:03.979Z,2.42
2023-03-29T16:43:33.209Z,2.75
2023-03-29T16:46:01.199Z,2.67
2023-03-29T16:48:29.231Z,2.55
2023-03-29T16:50:57.072Z,3.00
2023-03-29T16:53:24.939Z,2.58
2023-03-29T16:55:52.820Z,2.35
2023-03-29T16:58:21.193Z,2.63
2023-03-29T17:00:51.849Z,2.75
2023-03-29T17:03:19.820Z,2.28
2023-03-29T17:05:48.536Z,2.85
2023-03-29T17:08:17.220Z,2.88
2023-03-29T17:10:45.405Z,2.45
2023-03-29T17:13:13.744Z,2.03
2023-03-29T17:15:41.706Z,2.30
2023-03-29T17:18:11.014Z,2.47
2023-03-29T17:20:39.822Z,2.00
2023-03-29T17:23:08.812Z,2.47
2023-03-29T17:25:36.845Z,2.33
2023-03-29T17:28:05.116Z,2.60
2023-03-29T17:30:34.766Z,2.28
2023-03-29T17:33:03.072Z,2.38
2023-03-29T17:35:32.524Z,2.22
2023-03-29T17:38:01.354Z,2.05
2023-03-29T17:40:29.691Z,2.03
2023-03-29T17:42:57.518Z,2.33
2023-03-29T17:45:25.739Z,2.70
2023-03-29T17:47:56.115Z,2.80
2023-03-29T17:50:24.011Z,2.95
2023-03-29T17:52:53.308Z,1.95
2023-03-29T17:55:21.247Z,2.42
2023-03-29T17:57:49.896Z,2.20
2023-03-29T18:00:18.735Z,2.40
2023-03-29T18:02:46.830Z,2.50
2023-03-29T18:05:14.780Z,2.45
2023-03-29T18:07:42.661Z,2.20
2023-03-29T18:10:12.309Z,2.42
2023-03-29T18:12:40.193Z,1.67
2023-03-29T18:15:09.421Z,2.13
2023-03-29T18:17:37.309Z,2.65
2023-03-29T18:20:11.011Z,1.98
2023-03-29T18:22:39.040Z,2.15
2023-03-29T18:25:09.434Z,1.90
2023-03-29T18:27:39.145Z,2.00
2023-03-29T18:30:09.199Z,2.40
2023-03-29T18:32:37.251Z,1.95
2023-03-29T18:35:06.251Z,1.70
2023-03-29T18:37:34.257Z,2.40
2023-03-29T18:40:02.139Z,2.10
2023-03-29T18:42:29.983Z,2.38
2023-03-29T18:44:59.298Z,2.05
2023-03-29T18:47:27.255Z,2.15
2023-03-29T18:49:55.188Z,2.03
2023-03-29T18:52:23.345Z,1.75
2023-03-29T18:54:51.366Z,1.48
2023-03-29T18:57:19.527Z,1.80
2023-03-29T18:59:47.462Z,1.88
2023-03-29T19:02:16.735Z,2.13
2023-03-29T19:04:44.793Z,1.90
2023-03-29T19:07:12.747Z,1.70
2023-03-29T19:09:41.579Z,2.22
2023-03-29T19:12:09.690Z,1.90
2023-03-29T19:14:37.634Z,2.13
2023-03-29T19:17:05.596Z,1.40
2023-03-29T19:19:34.803Z,1.40
2023-03-29T19:22:03.260Z,1.23
2023-03-29T19:24:31.337Z,1.20
2023-03-29T19:26:59.300Z,1.27
2023-03-29T19:29:27.296Z,1.30
2023-03-29T19:31:56.925Z,1.40
2023-03-29T19:34:25.173Z,1.02
2023-03-29T19:36:55.182Z,1.20
2023-03-29T19:39:24.993Z,1.10
2023-03-29T19:41:52.877Z,1.63
2023-03-29T19:44:23.434Z,0.88
2023-03-29T19:46:51.480Z,0.95
2023-03-29T19:49:19.594Z,1.20
2023-03-29T19:51:47.860Z,0.60
2023-03-29T19:54:17.434Z,0.90
2023-03-29T19:56:45.429Z,0.70
2023-03-29T19:59:14.967Z,0.75
2023-03-29T20:01:50.583Z,0.63
2023-03-29T20:04:18.819Z,0.82
2023-03-29T20:06:46.899Z,0.70
2023-03-29T20:09:16.756Z,0.63
2023-03-29T20:11:46.599Z,0.40
2023-03-29T20:14:14.864Z,0.57
2023-03-29T20:16:43.973Z,0.50
2023-03-29T20:19:14.133Z,0.63
2023-03-29T20:21:42.228Z,0.35
2023-03-29T20:24:10.586Z,0.30
2023-03-29T20:26:39.829Z,0.50
2023-03-29T20:29:07.947Z,0.40
2023-03-29T20:31:35.958Z,0.40
2023-03-29T20:34:03.901Z,0.57
2023-03-29T20:36:31.981Z,0.50
2023-03-29T20:39:00.260Z,0.45
2023-03-29T20:41:28.207Z,0.55
2023-03-29T20:43:59.894Z,0.32
2023-03-29T20:46:34.137Z,0.50
2023-03-29T20:49:02.774Z,0.30
2023-03-29T20:51:31.851Z,0.25
2023-03-29T20:54:04.926Z,0.40
2023-03-29T20:56:34.317Z,0.60
2023-03-29T20:59:03.899Z,0.30
2023-03-29T21:01:31.911Z,0.20
2023-03-29T21:03:59.897Z,0.20
2023-03-29T21:06:28.205Z,0.30
2023-03-29T21:08:57.340Z,0.28
2023-03-29T21:11:25.208Z,0.30
2023-03-29T21:13:53.866Z,0.20
2023-03-29T21:16:25.083Z,0.30
2023-03-29T21:18:54.071Z,0.30
2023-03-29T21:21:22.612Z,0.25
2023-03-29T21:23:50.576Z,0.40
2023-03-29T21:26:18.593Z,0.40
2023-03-29T21:28:48.493Z,0.40
2023-03-29T21:31:16.473Z,0.28
2023-03-29T21:33:45.813Z,0.20
2023-03-29T21:36:13.682Z,0.30
2023-03-29T21:38:41.556Z,0.50
2023-03-29T21:41:11.917Z,0.20
2023-03-29T21:43:40.346Z,0.40
2023-03-29T21:46:08.854Z,0.45
2023-03-29T21:48:37.011Z,0.30
2023-03-29T21:51:07.244Z,0.20
2023-03-29T21:53:35.411Z,0.20
2023-03-29T21:56:03.644Z,0.30
2023-03-29T21:58:31.555Z,0.65
2023-03-29T22:00:59.426Z,0.45
2023-03-29T22:03:27.430Z,0.40
2023-03-29T22:05:59.310Z,0.30
2023-03-29T22:08:28.748Z,0.30
2023-03-29T22:10:57.698Z,0.50
2023-03-29T22:13:27.711Z,0.30
2023-03-29T22:15:58.497Z,0.30
2023-03-29T22:18:27.854Z,0.60
2023-03-29T22:20:55.864Z,0.30
2023-03-29T22:23:24.841Z,0.30
2023-03-29T22:25:54.122Z,0.30
2023-03-29T22:28:22.022Z,0.45
2023-03-29T22:30:49.920Z,0.45
2023-03-29T22:33:17.739Z,0.40
2023-03-29T22:35:45.642Z,0.30
2023-03-29T22:38:13.503Z,0.30
2023-03-29T22:40:41.434Z,0.20
2023-03-29T22:43:10.964Z,0.40
2023-03-29T22:45:38.913Z,0.35
2023-03-29T22:48:07.315Z,0.30
2023-03-29T22:50:35.225Z,0.30
2023-03-29T22:53:03.179Z,0.30
2023-03-29T22:55:31.035Z,0.40
2023-03-29T22:57:58.857Z,0.25
2023-03-29T23:00:28.132Z,0.30
2023-03-29T23:02:56.344Z,0.20
2023-03-29T23:05:24.634Z,0.30
2023-03-29T23:07:52.519Z,0.20
2023-03-29T23:10:20.412Z,0.15
2023-03-29T23:12:49.494Z,0.22
2023-03-29T23:15:17.921Z,0.30
2023-03-29T23:17:47.150Z,0.20
2023-03-29T23:20:16.024Z,0.10
2023-03-29T23:22:43.845Z,0.20
2023-03-29T23:25:11.967Z,0.22
